Time;durP1;ratioP1;P1;durP2;ratioP2;P2;SDS_P1;SDS_P2;PMS_P1;PMS_P2;Temp;Humidity;BMP_temperature;BMP_pressure;BME280_temperature;BME280_humidity;BME280_pressure;Samples;Min_cycle;Max_cycle;Signal;HPM_P1;HPM_P2
2021/06/11 00:00:09;;;;;;;4.05;2.17;;;16.70;99.90;;;;;;5092258;28;20028;-81
2021/06/11 00:02:35;;;;;;;6.38;2.10;;;16.70;99.90;;;;;;5092444;28;20081;-81
2021/06/11 00:05:00;;;;;;;3.10;2.10;;;16.80;99.90;;;;;;5091886;28;20123;-81
2021/06/11 00:07:26;;;;;;;2.50;2.10;;;16.80;99.90;;;;;;5092294;28;20535;-80
2021/06/11 00:09:52;;;;;;;4.28;2.40;;;16.80;99.90;;;;;;5092084;28;20051;-80
2021/06/11 00:12:17;;;;;;;5.72;2.65;;;16.80;99.90;;;;;;5092094;28;20112;-81
2021/06/11 00:14:44;;;;;;;3.53;2.40;;;16.70;99.90;;;;;;5093199;28;20021;-81
2021/06/11 00:17:10;;;;;;;3.45;2.40;;;16.80;99.90;;;;;;5092216;28;20483;-80
2021/06/11 00:19:37;;;;;;;3.47;2.55;;;16.80;99.90;;;;;;5091765;28;20043;-82
2021/06/11 00:22:03;;;;;;;2.80;2.08;;;16.80;99.90;;;;;;5093089;28;20043;-81
2021/06/11 00:24:29;;;;;;;4.60;2.45;;;16.80;99.90;;;;;;5092198;28;20031;-81
2021/06/11 00:26:55;;;;;;;3.83;1.88;;;16.70;99.90;;;;;;5094750;28;20024;-80
2021/06/11 00:29:21;;;;;;;2.97;1.98;;;16.70;99.90;;;;;;5095938;28;20042;-81
2021/06/11 00:31:46;;;;;;;2.25;2.00;;;16.70;99.90;;;;;;5097072;28;20024;-81
2021/06/11 00:34:12;;;;;;;3.00;2.30;;;16.70;99.90;;;;;;5095506;28;20020;-81
2021/06/11 00:36:38;;;;;;;4.90;2.33;;;16.70;99.90;;;;;;5096081;28;20371;-80
2021/06/11 00:39:04;;;;;;;3.15;2.20;;;16.80;99.90;;;;;;5096945;28;20044;-81
2021/06/11 00:41:30;;;;;;;2.78;2.22;;;16.80;99.90;;;;;;5095724;28;20024;-82
2021/06/11 00:43:56;;;;;;;3.20;2.30;;;16.80;99.90;;;;;;5095788;28;20092;-80
2021/06/11 00:46:21;;;;;;;4.32;1.90;;;16.80;99.90;;;;;;5096474;28;20047;-81
2021/06/11 00:48:47;;;;;;;2.65;1.92;;;16.80;99.90;;;;;;5095636;28;20067;-81
2021/06/11 00:51:13;;;;;;;4.10;1.90;;;16.80;99.90;;;;;;5096817;28;20038;-82
2021/06/11 00:53:39;;;;;;;2.47;2.20;;;16.80;99.90;;;;;;5095710;28;20069;-81
2021/06/11 00:56:05;;;;;;;4.07;2.60;;;16.80;99.90;;;;;;5095677;28;20024;-82
2021/06/11 00:58:31;;;;;;;2.78;2.47;;;16.90;99.90;;;;;;5095483;28;20027;-82
2021/06/11 01:00:57;;;;;;;4.03;2.70;;;16.80;99.90;;;;;;5095265;28;20028;-82
2021/06/11 01:03:23;;;;;;;2.78;2.50;;;16.80;99.90;;;;;;5095740;28;20103;-81
2021/06/11 01:05:49;;;;;;;2.50;2.17;;;16.70;99.90;;;;;;5095233;28;20048;-82
2021/06/11 01:08:17;;;;;;;3.20;2.30;;;16.70;99.90;;;;;;5095646;28;20027;-83
2021/06/11 01:10:45;;;;;;;3.05;2.30;;;16.70;99.90;;;;;;5095234;28;20036;-81
2021/06/11 01:13:13;;;;;;;3.00;2.35;;;16.70;99.90;;;;;;5095207;28;20027;-81
2021/06/11 01:15:39;;;;;;;3.58;2.40;;;16.60;99.90;;;;;;5095463;28;20031;-83
2021/06/11 01:18:05;;;;;;;3.53;2.30;;;16.70;99.90;;;;;;5094751;28;20031;-80
2021/06/11 01:20:32;;;;;;;4.15;1.98;;;16.50;99.90;;;;;;5095874;28;20020;-80
2021/06/11 01:23:06;;;;;;;2.70;2.10;;;16.50;99.90;;;;;;5094412;28;20027;-81
2021/06/11 01:25:47;;;;;;;3.55;2.40;;;16.40;99.90;;;;;;5094684;28;20420;-81
2021/06/11 01:28:14;;;;;;;4.80;2.67;;;16.30;99.90;;;;;;5094681;28;20020;-80
2021/06/11 01:30:40;;;;;;;3.35;2.25;;;16.30;99.90;;;;;;5094812;28;20478;-82
2021/06/11 01:33:09;;;;;;;3.20;2.53;;;16.30;99.90;;;;;;5094783;28;20073;-80
2021/06/11 01:35:45;;;;;;;3.97;2.60;;;16.30;99.90;;;;;;5094723;28;20067;-81
2021/06/11 01:38:21;;;;;;;3.58;2.40;;;16.20;99.90;;;;;;5095018;28;20539;-80
2021/06/11 01:40:47;;;;;;;;;;;16.10;99.90;;;;;;5095200;28;20374;-81
2021/06/11 01:43:14;;;;;;;4.07;2.50;;;16.20;99.90;;;;;;5094259;28;19900;-81
2021/06/11 01:45:40;;;;;;;3.92;2.63;;;16.10;99.90;;;;;;5094504;28;20024;-81
2021/06/11 01:48:06;;;;;;;3.20;2.42;;;16.20;99.90;;;;;;5095681;28;20038;-82
2021/06/11 01:50:34;;;;;;;4.68;2.35;;;16.20;99.90;;;;;;5094311;28;20115;-82
2021/06/11 01:53:01;;;;;;;4.53;2.63;;;16.20;99.90;;;;;;5094659;28;20024;-82
2021/06/11 01:55:32;;;;;;;4.68;2.78;;;16.20;99.90;;;;;;5094691;28;20031;-83
2021/06/11 01:58:01;;;;;;;4.43;2.85;;;16.10;99.90;;;;;;5094506;28;20034;-81
2021/06/11 02:00:27;;;;;;;4.07;2.17;;;16.10;99.90;;;;;;5095567;28;20030;-82
2021/06/11 02:02:53;;;;;;;5.28;2.60;;;16.10;99.90;;;;;;5094366;28;20024;-82
2021/06/11 02:05:21;;;;;;;3.72;2.60;;;16.10;99.90;;;;;;5094253;28;20047;-82
2021/06/11 02:07:47;;;;;;;5.38;2.40;;;16.10;99.90;;;;;;5094029;28;20036;-83
2021/06/11 02:10:17;;;;;;;4.20;3.20;;;16.10;99.90;;;;;;5094248;28;20036;-81
2021/06/11 02:12:43;;;;;;;6.95;3.30;;;16.10;99.90;;;;;;5094321;28;20541;-81
2021/06/11 02:15:11;;;;;;;3.50;3.20;;;16.10;99.90;;;;;;5095536;28;20028;-81
2021/06/11 02:17:39;;;;;;;3.40;2.92;;;16.00;99.90;;;;;;5095444;28;20020;-81
2021/06/11 02:20:19;;;;;;;4.60;2.72;;;16.00;99.90;;;;;;5094020;28;20035;-85
2021/06/11 02:22:46;;;;;;;4.78;3.20;;;16.00;99.90;;;;;;5095327;28;20020;-83
2021/06/11 02:25:14;;;;;;;4.50;2.80;;;16.00;99.90;;;;;;5095068;28;20027;-81
2021/06/11 02:27:41;;;;;;;3.85;2.67;;;15.90;99.90;;;;;;5094189;28;20375;-81
2021/06/11 02:30:09;;;;;;;4.28;2.80;;;15.90;99.90;;;;;;5094993;28;20036;-82
2021/06/11 02:32:35;;;;;;;4.25;2.53;;;15.90;99.90;;;;;;5094354;28;20020;-81
2021/06/11 02:35:04;;;;;;;3.70;3.15;;;15.90;99.90;;;;;;5095020;28;20099;-83
2021/06/11 02:37:30;;;;;;;2.55;2.20;;;15.80;99.90;;;;;;5093814;28;20464;-84
2021/06/11 02:39:56;;;;;;;4.20;3.00;;;15.80;99.90;;;;;;5095059;28;20085;-83
2021/06/11 02:42:23;;;;;;;8.23;2.60;;;15.80;99.90;;;;;;5095052;28;20016;-82
2021/06/11 02:44:52;;;;;;;2.90;2.60;;;15.70;99.90;;;;;;5093980;28;20110;-84
2021/06/11 02:47:42;;;;;;;3.05;2.13;;;15.70;99.90;;;;;;5093702;28;20394;-83
2021/06/11 02:50:12;;;;;;;2.65;2.30;;;15.60;99.90;;;;;;5093430;28;20454;-82
2021/06/11 02:52:44;;;;;;;2.90;2.63;;;15.70;99.90;;;;;;5093732;28;20074;-81
2021/06/11 02:55:11;;;;;;;3.97;2.50;;;15.70;99.90;;;;;;5093510;28;20032;-82
2021/06/11 02:57:47;;;;;;;3.85;2.67;;;15.70;99.90;;;;;;5093504;28;20035;-82
2021/06/11 03:00:13;;;;;;;2.95;2.75;;;15.70;99.90;;;;;;5093403;28;20031;-85
2021/06/11 03:02:53;;;;;;;4.30;2.85;;;15.70;99.90;;;;;;5093374;28;20038;-82
2021/06/11 03:05:21;;;;;;;4.45;2.45;;;15.70;99.90;;;;;;5093414;28;20094;-82
2021/06/11 03:07:51;;;;;;;6.18;3.90;;;15.60;99.90;;;;;;5093158;28;20428;-84
2021/06/11 03:10:27;;;;;;;3.50;3.15;;;15.60;99.90;;;;;;5092722;28;20448;-84
2021/06/11 03:12:56;;;;;;;4.32;2.78;;;15.60;99.90;;;;;;5093248;28;20498;-82
2021/06/11 03:15:24;;;;;;;3.85;2.72;;;15.50;99.90;;;;;;5093308;28;20031;-83
2021/06/11 03:17:54;;;;;;;2.60;2.20;;;15.50;99.90;;;;;;5094638;28;20058;-82
2021/06/11 03:20:24;;;;;;;4.72;2.88;;;15.40;99.90;;;;;;5093192;28;20028;-82
2021/06/11 03:22:59;;;;;;;1.42;1.30;;;15.50;99.90;;;;;;5093307;28;20111;-90
2021/06/11 03:25:37;;;;;;;4.28;2.35;;;15.80;99.90;;;;;;5093641;28;20024;-80
2021/06/11 03:28:13;;;;;;;3.15;2.50;;;17.00;99.90;;;;;;5095242;28;20024;-81
2021/06/11 03:30:43;;;;;;;5.00;2.50;;;16.80;99.90;;;;;;5092516;28;20032;-81
2021/06/11 03:33:13;;;;;;;4.47;2.75;;;16.50;99.90;;;;;;5097997;28;20102;-85
2021/06/11 03:35:48;;;;;;;5.85;2.88;;;16.40;99.90;;;;;;5092988;28;20035;-83
2021/06/11 03:38:20;;;;;;;4.63;2.60;;;16.20;99.90;;;;;;5092975;28;20022;-82
2021/06/11 03:40:48;;;;;;;5.63;3.13;;;16.10;99.90;;;;;;5092907;28;20414;-81
2021/06/11 03:43:14;;;;;;;5.85;3.13;;;16.10;99.90;;;;;;5094339;28;20459;-84
2021/06/11 03:45:42;;;;;;;4.13;3.22;;;16.10;99.90;;;;;;5076097;28;20024;-84
2021/06/11 03:48:11;;;;;;;4.18;3.10;;;16.10;99.90;;;;;;5093954;28;20027;-84
2021/06/11 03:50:39;;;;;;;7.05;3.03;;;16.10;99.90;;;;;;5092691;28;20028;-82
2021/06/11 03:53:06;;;;;;;3.90;3.10;;;16.10;99.90;;;;;;5097846;28;20016;-83
2021/06/11 03:55:41;;;;;;;3.35;3.03;;;16.10;99.90;;;;;;5092697;28;20077;-83
2021/06/11 03:58:33;;;;;;;3.75;3.35;;;16.20;99.90;;;;;;5092927;28;20020;-80
2021/06/11 04:01:01;;;;;;;4.07;3.22;;;16.20;99.90;;;;;;5093875;28;20036;-82
2021/06/11 04:03:27;;;;;;;3.80;3.08;;;16.30;99.90;;;;;;5098023;28;20099;-80
2021/06/11 04:06:01;;;;;;;4.80;3.40;;;16.20;99.90;;;;;;5096623;28;20131;-83
2021/06/11 04:08:30;;;;;;;4.53;3.35;;;16.20;99.90;;;;;;5096919;28;20035;-83
2021/06/11 04:10:57;;;;;;;5.28;3.22;;;16.20;99.90;;;;;;5096136;28;20035;-81
2021/06/11 04:13:29;;;;;;;6.47;3.25;;;16.30;99.90;;;;;;5096583;28;20024;-81
2021/06/11 04:15:59;;;;;;;3.92;3.33;;;16.30;99.90;;;;;;5097794;28;20043;-81
2021/06/11 04:18:29;;;;;;;6.47;3.58;;;16.40;99.90;;;;;;5096574;28;20020;-81
2021/06/11 04:20:59;;;;;;;3.88;3.28;;;16.50;99.90;;;;;;5097731;28;20017;-81
2021/06/11 04:23:29;;;;;;;6.93;3.92;;;16.50;99.90;;;;;;5096704;28;20024;-81
2021/06/11 04:25:57;;;;;;;9.60;3.95;;;16.60;99.90;;;;;;5095994;28;20470;-83
2021/06/11 04:28:24;;;;;;;6.97;3.60;;;16.60;99.90;;;;;;5097360;28;20141;-82
2021/06/11 04:30:53;;;;;;;4.60;3.50;;;16.70;99.90;;;;;;5096686;28;20386;-84
2021/06/11 04:33:24;;;;;;;3.83;3.45;;;16.80;99.90;;;;;;5097683;28;20103;-83
2021/06/11 04:35:50;;;;;;;5.68;3.25;;;16.90;99.90;;;;;;5096470;28;20066;-81
2021/06/11 04:38:17;;;;;;;5.30;3.72;;;16.90;99.90;;;;;;5097398;28;20101;-82
2021/06/11 04:40:43;;;;;;;5.07;3.70;;;17.00;99.90;;;;;;5095657;28;20146;-82
2021/06/11 04:43:09;;;;;;;3.80;3.42;;;17.10;99.90;;;;;;5096251;28;20544;-82
2021/06/11 04:45:35;;;;;;;4.70;3.67;;;17.20;99.90;;;;;;5095946;28;20030;-83
2021/06/11 04:48:01;;;;;;;5.93;3.85;;;17.30;99.90;;;;;;5096302;28;20486;-81
2021/06/11 04:50:27;;;;;;;5.25;3.30;;;17.40;99.90;;;;;;5096551;28;20467;-80
2021/06/11 04:52:54;;;;;;;5.20;3.42;;;17.50;99.90;;;;;;5097341;28;20091;-83
2021/06/11 04:55:19;;;;;;;4.50;3.55;;;17.60;99.90;;;;;;5095955;28;20139;-83
2021/06/11 04:57:45;;;;;;;8.00;3.45;;;17.60;99.90;;;;;;5095955;28;20051;-82
2021/06/11 05:00:11;;;;;;;4.57;3.50;;;17.70;99.90;;;;;;5096798;28;20085;-83
2021/06/11 05:02:37;;;;;;;4.75;3.15;;;17.90;99.90;;;;;;5095863;28;20069;-83
2021/06/11 05:05:04;;;;;;;4.93;3.28;;;17.90;99.90;;;;;;5095619;28;20397;-84
2021/06/11 05:07:29;;;;;;;7.22;3.75;;;18.00;99.90;;;;;;5095941;28;20024;-83
2021/06/11 05:09:55;;;;;;;5.72;3.30;;;18.30;99.90;;;;;;5096713;28;20043;-81
2021/06/11 05:12:21;;;;;;;6.88;3.58;;;18.60;99.90;;;;;;5095729;28;20371;-83
2021/06/11 05:14:46;;;;;;;5.18;3.40;;;18.80;99.90;;;;;;5095870;28;20415;-80
2021/06/11 05:17:12;;;;;;;5.07;3.50;;;18.70;99.90;;;;;;5096409;28;20058;-83
2021/06/11 05:19:39;;;;;;;3.70;3.20;;;19.00;99.90;;;;;;5097064;28;20055;-82
2021/06/11 05:22:05;;;;;;;7.10;3.08;;;19.00;99.90;;;;;;5095829;28;20076;-82
2021/06/11 05:24:31;;;;;;;5.93;3.08;;;19.30;99.90;;;;;;5096014;28;20115;-82
2021/06/11 05:26:57;;;;;;;3.47;2.67;;;19.60;99.90;;;;;;5094569;28;20020;-80
2021/06/11 05:29:23;;;;;;;12.25;3.80;;;19.80;99.90;;;;;;5094209;28;20040;-78
2021/06/11 05:31:48;;;;;;;3.85;2.28;;;19.90;99.90;;;;;;5094674;28;20028;-78
2021/06/11 05:34:14;;;;;;;3.38;2.25;;;20.10;99.90;;;;;;5096026;28;20062;-79
2021/06/11 05:36:40;;;;;;;3.65;1.80;;;20.30;99.90;;;;;;5095645;28;20032;-79
2021/06/11 05:39:06;;;;;;;5.22;1.60;;;20.80;99.90;;;;;;5095432;28;20160;-80
2021/06/11 05:41:31;;;;;;;5.85;1.95;;;21.30;99.90;;;;;;5096596;28;20031;-78
2021/06/11 05:43:57;;;;;;;7.35;2.33;;;21.60;99.90;;;;;;5094726;28;20093;-79
2021/06/11 05:46:23;;;;;;;7.07;3.15;;;21.70;99.90;;;;;;5094843;28;20031;-80
2021/06/11 05:48:49;;;;;;;5.82;2.85;;;21.80;99.30;;;;;;5096223;28;20016;-81
2021/06/11 05:51:15;;;;;;;16.55;3.08;;;21.90;98.50;;;;;;5095390;28;20031;-79
2021/06/11 05:53:41;;;;;;;2.33;2.13;;;21.90;98.60;;;;;;5094906;28;20111;-79
2021/06/11 05:56:08;;;;;;;2.75;2.08;;;21.90;98.10;;;;;;5093859;28;20088;-79
2021/06/11 05:58:34;;;;;;;4.97;2.00;;;22.00;98.40;;;;;;5096401;28;20020;-78
2021/06/11 06:01:00;;;;;;;4.53;1.52;;;22.10;97.70;;;;;;5096125;28;20020;-80
2021/06/11 06:03:26;;;;;;;2.25;1.73;;;22.20;97.20;;;;;;5095028;28;20499;-80
2021/06/11 06:05:52;;;;;;;2.10;1.90;;;22.50;96.80;;;;;;5094764;28;20044;-80
2021/06/11 06:08:17;;;;;;;5.38;2.15;;;22.40;96.20;;;;;;5094913;28;20065;-80
2021/06/11 06:10:43;;;;;;;5.53;2.80;;;22.30;96.20;;;;;;5093372;28;20614;-80
2021/06/11 06:13:09;;;;;;;4.50;2.70;;;22.20;95.90;;;;;;5093791;28;20035;-79
2021/06/11 06:15:35;;;;;;;3.80;2.17;;;22.20;96.00;;;;;;5092978;28;20023;-77
2021/06/11 06:18:01;;;;;;;2.33;1.70;;;22.30;95.90;;;;;;5093538;28;20024;-79
2021/06/11 06:20:27;;;;;;;2.15;1.67;;;22.20;95.40;;;;;;5092867;28;20111;-80
2021/06/11 06:22:52;;;;;;;3.40;1.80;;;22.10;95.30;;;;;;5093303;28;20020;-80
2021/06/11 06:25:18;;;;;;;2.72;1.60;;;22.20;94.80;;;;;;5094442;28;20024;-80
2021/06/11 06:27:44;;;;;;;2.83;1.65;;;22.10;94.30;;;;;;5094902;28;20032;-81
2021/06/11 06:30:13;;;;;;;4.93;2.03;;;22.00;95.00;;;;;;5092937;28;20564;-80
2021/06/11 06:32:39;;;;;;;5.78;2.58;;;22.00;94.70;;;;;;5094118;28;20024;-80
2021/06/11 06:35:06;;;;;;;5.35;1.80;;;22.10;94.50;;;;;;5094132;28;20455;-81
2021/06/11 06:37:32;;;;;;;3.03;1.67;;;22.30;94.80;;;;;;5092836;28;20031;-82
2021/06/11 06:39:57;;;;;;;2.20;1.45;;;22.60;94.30;;;;;;5094021;28;20027;-81
2021/06/11 06:42:23;;;;;;;3.50;2.00;;;22.80;92.50;;;;;;5092650;28;20348;-80
2021/06/11 06:44:49;;;;;;;3.35;1.58;;;22.90;93.10;;;;;;5093634;28;20103;-81
2021/06/11 06:47:15;;;;;;;3.75;1.80;;;22.90;92.60;;;;;;5093879;28;20012;-81
2021/06/11 06:49:40;;;;;;;2.53;1.60;;;23.10;92.40;;;;;;5095113;28;20036;-81
2021/06/11 06:52:06;;;;;;;1.92;1.70;;;23.10;92.00;;;;;;5093224;28;20027;-81
2021/06/11 06:54:33;;;;;;;8.35;1.73;;;23.20;91.30;;;;;;5093749;28;20170;-81
2021/06/11 06:57:00;;;;;;;4.68;1.58;;;23.30;91.10;;;;;;5093865;28;20027;-81
2021/06/11 06:59:25;;;;;;;5.25;1.30;;;23.40;90.80;;;;;;5093139;28;20028;-81
2021/06/11 07:01:57;;;;;;;2.22;1.35;;;23.50;88.90;;;;;;5094658;28;20497;-80
2021/06/11 07:04:28;;;;;;;85.50;7.40;;;23.60;87.30;;;;;;5093539;28;20028;-80
2021/06/11 07:06:54;;;;;;;329.27;24.35;;;23.80;87.60;;;;;;5093553;28;20051;-80
2021/06/11 07:09:20;;;;;;;30.55;3.38;;;23.80;83.60;;;;;;5094100;28;20054;-80
2021/06/11 07:11:51;;;;;;;22.88;2.78;;;23.90;81.40;;;;;;5093529;28;20067;-82
2021/06/11 07:14:17;;;;;;;3.03;1.27;;;23.90;82.40;;;;;;5076356;28;20043;-80
2021/06/11 07:16:44;;;;;;;35.78;4.18;;;24.00;79.20;;;;;;5091567;28;20027;-79
2021/06/11 07:19:10;;;;;;;5.75;1.50;;;24.20;79.10;;;;;;5093710;28;20024;-79
2021/06/11 07:21:35;;;;;;;2.92;0.98;;;24.50;79.00;;;;;;5094707;28;20413;-80
2021/06/11 07:24:01;;;;;;;4.80;1.20;;;24.60;74.80;;;;;;5093599;28;20024;-80
2021/06/11 07:26:27;;;;;;;194.75;14.27;;;24.60;75.00;;;;;;5093595;28;20024;-80
2021/06/11 07:28:52;;;;;;;39.85;3.33;;;24.50;77.90;;;;;;5094055;28;20103;-81
2021/06/11 07:31:18;;;;;;;55.70;3.97;;;24.50;79.00;;;;;;5092866;28;20028;-81
2021/06/11 07:33:44;;;;;;;21.65;2.38;;;24.50;76.90;;;;;;5093237;28;20028;-79
2021/06/11 07:36:09;;;;;;;1.42;0.90;;;24.40;77.50;;;;;;5093887;28;20020;-78
2021/06/11 07:38:35;;;;;;;5.10;1.08;;;24.50;76.80;;;;;;5093799;28;20024;-81
2021/06/11 07:41:01;;;;;;;16.88;2.17;;;24.60;76.80;;;;;;5094117;28;20379;-79
2021/06/11 07:43:27;;;;;;;21.75;2.58;;;24.50;77.20;;;;;;5093133;28;20020;-81
2021/06/11 07:45:54;;;;;;;6.20;1.38;;;24.50;77.80;;;;;;5094177;28;20047;-78
2021/06/11 07:48:20;;;;;;;4.95;1.20;;;24.50;76.20;;;;;;5093971;28;20032;-80
2021/06/11 07:50:46;;;;;;;1.67;1.02;;;24.50;74.60;;;;;;5092563;28;20058;-80
2021/06/11 07:53:12;;;;;;;1.63;1.20;;;24.50;71.70;;;;;;5092460;28;20024;-79
2021/06/11 07:55:37;;;;;;;1.45;1.02;;;24.50;71.70;;;;;;5092834;28;20085;-80
2021/06/11 07:58:03;;;;;;;1.20;1.10;;;24.40;73.10;;;;;;5093964;28;20378;-80
2021/06/11 08:00:29;;;;;;;5.38;1.00;;;24.40;73.30;;;;;;5093574;28;20429;-80
2021/06/11 08:02:56;;;;;;;1.20;1.10;;;24.50;75.40;;;;;;5093716;28;20036;-80
2021/06/11 08:05:22;;;;;;;4.95;1.02;;;24.50;73.50;;;;;;5092615;28;20036;-80
2021/06/11 08:07:48;;;;;;;1.70;1.10;;;24.40;71.80;;;;;;5092321;28;20093;-79
2021/06/11 08:10:14;;;;;;;1.23;1.00;;;24.40;72.50;;;;;;5092668;28;20498;-80
2021/06/11 08:12:39;;;;;;;1.52;1.13;;;24.40;73.90;;;;;;5093743;28;20419;-79
2021/06/11 08:15:06;;;;;;;4.03;1.50;;;24.40;75.40;;;;;;5093793;28;20028;-79
2021/06/11 08:17:32;;;;;;;4.75;1.30;;;24.40;75.60;;;;;;5092190;28;20387;-78
2021/06/11 08:19:57;;;;;;;1.13;1.00;;;24.40;72.90;;;;;;5092224;28;20028;-79
2021/06/11 08:22:23;;;;;;;3.05;1.10;;;24.50;72.50;;;;;;5093706;28;20050;-78
2021/06/11 08:24:49;;;;;;;1.98;1.20;;;24.80;72.00;;;;;;5093375;28;20492;-77
2021/06/11 08:27:14;;;;;;;2.65;1.33;;;24.90;70.90;;;;;;5092418;28;20020;-79
2021/06/11 08:29:40;;;;;;;2.17;1.35;;;25.00;69.20;;;;;;5093344;28;20032;-78
2021/06/11 08:32:06;;;;;;;3.00;1.30;;;25.00;70.90;;;;;;5093606;28;20035;-79
2021/06/11 08:34:36;;;;;;;2.50;1.20;;;25.10;70.30;;;;;;5093696;28;20048;-80
2021/06/11 08:37:03;;;;;;;3.33;1.50;;;25.30;71.30;;;;;;5092033;28;20028;-79
2021/06/11 08:39:28;;;;;;;2.63;1.40;;;25.30;70.60;;;;;;5092051;28;20463;-78
2021/06/11 08:41:56;;;;;;;3.90;1.60;;;25.50;69.90;;;;;;5093337;28;20073;-78
2021/06/11 08:44:25;;;;;;;1.98;1.27;;;25.50;68.90;;;;;;5093269;28;20035;-80
2021/06/11 08:46:52;;;;;;;4.13;1.40;;;25.40;68.80;;;;;;5092930;28;20029;-79
2021/06/11 08:49:17;;;;;;;3.88;1.58;;;25.50;69.90;;;;;;5096685;28;20040;-80
2021/06/11 08:51:45;;;;;;;1.98;1.42;;;25.60;70.10;;;;;;5095744;28;20378;-80
2021/06/11 08:54:11;;;;;;;6.15;1.55;;;25.80;71.40;;;;;;5096035;28;20527;-79
2021/06/11 08:56:36;;;;;;;1.73;1.38;;;26.00;66.80;;;;;;5095560;28;20114;-80
2021/06/11 08:59:02;;;;;;;4.25;1.52;;;25.80;67.50;;;;;;5095545;28;20035;-78
2021/06/11 09:01:28;;;;;;;38.67;3.25;;;25.70;65.00;;;;;;5095428;28;20382;-80
2021/06/11 09:03:54;;;;;;;17.35;2.38;;;25.80;66.90;;;;;;5095544;28;20489;-79
2021/06/11 09:06:20;;;;;;;18.05;3.55;;;25.90;66.80;;;;;;5096178;28;20040;-83
2021/06/11 09:09:01;;;;;;;11.60;2.60;;;26.10;66.60;;;;;;5095197;28;20035;-81
2021/06/11 09:11:30;;;;;;;5.68;2.10;;;26.40;69.10;;;;;;5095162;28;20386;-79
2021/06/11 09:14:05;;;;;;;20.15;2.67;;;26.30;63.80;;;;;;5095086;28;20028;-81
2021/06/11 09:16:51;;;;;;;;;;;26.20;65.30;;;;;;5095596;28;20055;-82
2021/06/11 09:19:20;;;;;;;4.03;1.45;;;26.00;65.30;;;;;;5094378;28;19942;-81
2021/06/11 09:21:47;;;;;;;6.80;2.05;;;25.60;64.50;;;;;;5096366;28;20024;-80
2021/06/11 09:24:28;;;;;;;2.88;1.50;;;25.60;65.60;;;;;;5096445;28;20111;-84
2021/06/11 09:27:01;;;;;;;2.83;1.65;;;25.40;65.50;;;;;;5096491;28;20016;-78
2021/06/11 09:29:32;;;;;;;3.95;1.45;;;25.30;64.80;;;;;;5095299;28;20516;-79
2021/06/11 09:32:21;;;;;;;2.25;1.55;;;25.30;65.70;;;;;;5096172;28;20030;-79
2021/06/11 09:34:57;;;;;;;4.47;1.88;;;25.60;66.00;;;;;;5096417;28;20027;-78
2021/06/11 09:37:27;;;;;;;3.10;1.40;;;25.80;66.50;;;;;;5094633;28;20024;-79
2021/06/11 09:40:03;;;;;;;4.28;1.50;;;25.80;63.60;;;;;;5094848;28;20378;-80
2021/06/11 09:42:34;;;;;;;2.30;1.20;;;25.60;65.30;;;;;;5095269;28;20020;-80
2021/06/11 09:45:01;;;;;;;3.55;1.48;;;25.50;65.50;;;;;;5094719;28;20471;-79
2021/06/11 09:47:40;;;;;;;2.65;1.92;;;25.40;71.80;;;;;;5094160;28;20030;-78
2021/06/11 09:50:07;;;;;;;4.43;1.67;;;25.10;75.10;;;;;;5094917;28;20047;-80
2021/06/11 09:52:35;;;;;;;4.95;1.60;;;24.80;76.00;;;;;;5094406;28;20125;-79
2021/06/11 09:55:05;;;;;;;5.30;1.85;;;24.30;78.20;;;;;;5094219;28;20498;-80
2021/06/11 09:57:36;;;;;;;3.50;1.80;;;23.80;78.80;;;;;;5093549;28;20027;-81
2021/06/11 10:00:03;;;;;;;2.15;1.70;;;23.50;78.80;;;;;;5093659;28;20031;-79
2021/06/11 10:02:31;;;;;;;4.18;1.63;;;23.50;78.20;;;;;;5095061;28;20020;-76
2021/06/11 10:04:58;;;;;;;3.72;1.80;;;23.70;79.00;;;;;;5093652;28;20081;-78
2021/06/11 10:07:24;;;;;;;4.85;1.90;;;24.00;82.90;;;;;;5094657;28;20073;-78
2021/06/11 10:09:50;;;;;;;3.40;1.85;;;24.40;85.10;;;;;;5095749;28;20028;-78
2021/06/11 10:12:16;;;;;;;2.63;2.10;;;24.60;87.20;;;;;;5094760;28;20479;-79
2021/06/11 10:14:41;;;;;;;3.17;1.83;;;24.70;86.40;;;;;;5095779;28;20024;-80
2021/06/11 10:17:08;;;;;;;2.65;1.88;;;24.90;83.20;;;;;;5097513;28;20034;-82
2021/06/11 10:19:37;;;;;;;2.58;1.60;;;24.90;83.70;;;;;;5095838;28;20026;-81
2021/06/11 10:22:04;;;;;;;2.60;1.50;;;25.00;71.80;;;;;;5095229;28;20020;-82
2021/06/11 10:24:30;;;;;;;4.55;1.90;;;25.00;72.90;;;;;;5094647;28;20027;-82
2021/06/11 10:26:55;;;;;;;3.97;1.70;;;25.00;72.50;;;;;;5094743;28;20019;-81
2021/06/11 10:29:22;;;;;;;2.55;1.65;;;24.80;69.10;;;;;;5094735;28;20479;-82
2021/06/11 10:31:48;;;;;;;3.40;2.00;;;24.70;69.20;;;;;;5096053;28;20027;-82
2021/06/11 10:34:14;;;;;;;3.22;1.67;;;24.60;72.20;;;;;;5096321;28;20032;-80
2021/06/11 10:36:46;;;;;;;3.20;1.83;;;24.50;75.90;;;;;;5093731;28;20043;-78
2021/06/11 10:39:13;;;;;;;2.28;1.73;;;24.50;83.00;;;;;;5093245;28;20030;-79
2021/06/11 10:42:03;;;;;;;3.10;1.98;;;24.50;86.00;;;;;;5093469;28;20024;-78
2021/06/11 10:44:41;;;;;;;5.10;2.05;;;24.50;83.90;;;;;;5094311;28;20428;-79
2021/06/11 10:47:16;;;;;;;1.90;1.67;;;24.70;85.20;;;;;;5093409;28;20028;-79
2021/06/11 10:50:00;;;;;;;2.17;1.67;;;25.00;76.60;;;;;;5092844;28;20032;-79
2021/06/11 10:52:34;;;;;;;4.10;1.90;;;25.10;72.20;;;;;;5094109;28;20063;-79
2021/06/11 10:55:17;;;;;;;3.80;1.67;;;25.40;72.50;;;;;;5092704;28;20031;-79
2021/06/11 10:58:02;;;;;;;3.20;1.70;;;25.50;72.70;;;;;;5092924;28;20020;-79
2021/06/11 11:00:35;;;;;;;1.85;1.52;;;25.30;71.20;;;;;;5093276;28;20031;-79
2021/06/11 11:03:03;;;;;;;3.45;1.50;;;25.30;68.90;;;;;;5093761;28;20025;-80
2021/06/11 11:05:40;;;;;;;2.15;1.52;;;25.30;69.00;;;;;;5093575;28;20560;-78
2021/06/11 11:08:07;;;;;;;2.35;1.52;;;25.50;68.50;;;;;;5093730;28;20482;-79
2021/06/11 11:10:36;;;;;;;1.42;1.33;;;25.60;66.80;;;;;;5092957;28;20066;-81
2021/06/11 11:13:04;;;;;;;2.22;1.50;;;25.70;66.40;;;;;;5093804;28;20020;-79
2021/06/11 11:15:38;;;;;;;2.83;1.63;;;25.80;65.70;;;;;;5093461;28;20028;-77
2021/06/11 11:18:24;;;;;;;5.03;1.80;;;25.90;65.60;;;;;;5093423;28;20030;-78
2021/06/11 11:20:51;;;;;;;1.98;1.67;;;25.80;64.60;;;;;;5093489;28;20032;-80
2021/06/11 11:23:19;;;;;;;2.22;1.65;;;26.00;63.70;;;;;;5093534;28;20028;-79
2021/06/11 11:25:46;;;;;;;3.90;1.70;;;26.10;62.50;;;;;;5093801;28;20019;-77
2021/06/11 11:28:13;;;;;;;3.35;2.05;;;26.20;63.20;;;;;;5093267;28;20025;-80
2021/06/11 11:30:42;;;;;;;1.70;1.60;;;26.30;62.80;;;;;;5093254;28;20038;-79
2021/06/11 11:33:08;;;;;;;3.92;2.25;;;26.50;63.00;;;;;;5093115;28;20024;-78
2021/06/11 11:35:37;;;;;;;3.53;1.67;;;26.70;64.50;;;;;;5093017;28;20144;-78
2021/06/11 11:38:05;;;;;;;4.65;1.85;;;26.50;60.30;;;;;;5094264;28;20020;-78
2021/06/11 11:40:31;;;;;;;3.50;1.73;;;26.50;61.60;;;;;;5094410;28;20051;-76
2021/06/11 11:42:59;;;;;;;2.90;1.60;;;26.60;59.80;;;;;;5092906;28;20028;-76
2021/06/11 11:45:27;;;;;;;12.18;2.20;;;26.50;59.40;;;;;;5093897;28;20020;-78
2021/06/11 11:47:59;;;;;;;3.95;2.03;;;26.50;59.60;;;;;;5089977;28;20525;-78
2021/06/11 11:50:31;;;;;;;1.98;1.77;;;26.40;58.20;;;;;;5092293;28;20036;-78
2021/06/11 11:52:57;;;;;;;2.22;1.70;;;26.40;58.40;;;;;;5092693;28;20027;-76
2021/06/11 11:55:23;;;;;;;3.05;1.80;;;26.50;59.30;;;;;;5093913;28;20024;-76
2021/06/11 11:57:49;;;;;;;4.50;1.88;;;26.60;59.20;;;;;;5092510;28;20046;-77
2021/06/11 12:00:16;;;;;;;2.17;1.73;;;26.70;59.60;;;;;;5092554;28;20024;-77
2021/06/11 12:02:42;;;;;;;2.53;1.70;;;26.90;59.70;;;;;;5090822;28;20027;-79
2021/06/11 12:05:09;;;;;;;1.73;1.55;;;27.10;58.80;;;;;;5092099;28;20028;-77
2021/06/11 12:07:35;;;;;;;3.10;1.50;;;27.00;59.50;;;;;;5092029;28;20119;-77
2021/06/11 12:10:01;;;;;;;2.83;1.50;;;27.00;56.80;;;;;;5089286;28;20194;-77
2021/06/11 12:12:27;;;;;;;2.03;1.45;;;27.20;56.40;;;;;;5093117;28;20101;-79
2021/06/11 12:14:54;;;;;;;2.55;1.52;;;27.40;57.50;;;;;;5092592;28;20028;-78
2021/06/11 12:17:19;;;;;;;2.35;1.70;;;27.50;55.00;;;;;;5092718;28;20016;-76
2021/06/11 12:19:45;;;;;;;2.97;1.50;;;27.50;56.40;;;;;;5092425;28;20024;-80
2021/06/11 12:22:11;;;;;;;2.20;1.83;;;27.60;54.90;;;;;;5093944;28;20060;-79
2021/06/11 12:24:37;;;;;;;2.13;1.60;;;27.60;54.80;;;;;;5096837;28;20590;-79
2021/06/11 12:27:04;;;;;;;3.75;1.63;;;27.50;55.80;;;;;;5095498;28;20135;-78
2021/06/11 12:29:30;;;;;;;4.70;1.70;;;27.30;55.80;;;;;;5095421;28;20089;-79
2021/06/11 12:31:55;;;;;;;5.10;1.50;;;27.20;55.50;;;;;;5095063;28;20074;-81
2021/06/11 12:34:21;;;;;;;2.78;1.60;;;27.10;58.40;;;;;;5094931;28;20032;-80
2021/06/11 12:36:47;;;;;;;2.58;1.60;;;27.00;59.00;;;;;;5096912;28;20073;-81
2021/06/11 12:39:13;;;;;;;6.50;1.98;;;26.90;58.10;;;;;;5095619;28;20375;-81
2021/06/11 12:41:40;;;;;;;2.28;1.52;;;26.90;58.20;;;;;;5095442;28;20028;-76
2021/06/11 12:44:17;;;;;;;109.93;9.38;;;26.70;57.50;;;;;;5095322;28;20429;-75
2021/06/11 12:46:54;;;;;;;63.47;5.88;;;26.80;58.30;;;;;;5095601;28;20028;-79
2021/06/11 12:49:22;;;;;;;96.15;9.27;;;26.90;56.50;;;;;;5094934;28;20028;-82